Terminal Aerodrome Forecast
Issued by NWS

Home | Current Version | Previous Version | Text Only | Print | Product List | Glossary On
Versions: 1 2 3 4 5 6 7 8 9 10 11 12 13 14 15 16 17 18 19 20 21 22 23 24 25 26 27
000
FTUS41 KCAR 301120
TAFPQI
TAF
KPQI 301120Z 3012/3112 17008KT P6SM -SHRA OVC006
     FM301400 18008KT 3SM BR VCSH OVC005
     FM301700 19008KT P6SM BKN020
     FM302100 19010KT P6SM VCSH BKN050
     FM310200 21008KT P6SM BKN070
     FM311000 25006KT P6SM SCT030=

USA.gov is the U.S. government's official web portal to all federal, state and local government web resources and services.